Terminal Aerodrome Forecast
Issued by NWS Detroit/Pontiac, MI

Home | Current Version | Previous Version | Text Only | Print | Product List | Glossary On
Versions: 1 2 3 4 5 6 7 8 9 10 11 12 13 14 15 16 17 18 19 20 21 22 23 24 25 26 27 28
000
FTUS43 KDTX 191125
TAFDTW
TAF
KDTW 191125Z 1912/2018 07011KT P6SM BKN250
     FM191400 10014G20KT P6SM BKN070 OVC150
     FM192100 09012KT 6SM -RA BKN040 OVC060
     FM200100 11014KT 2SM RA BKN012 OVC022
      TEMPO 2001/2004 3/4SM +RA SCT008 OVC015
     FM200700 16012G20KT P6SM BKN008 OVC018
      TEMPO 2007/2010 5SM -SHRA=

USA.gov is the U.S. government's official web portal to all federal, state and local government web resources and services.